Petersham, Massachusetts
Current Conditions -  °F | °C
As of 2:52 PM on Saturday 25 Oct 2014 (Local Time) from KORE Reporting Station
Clear Clear  
Wind Chill: 62°   Ceiling: Unl
Heat Index: 62°   Visibility: 10mi
Dew Point: 43°   Wind: 13mph
Humidity: 50%   Direction: 260°W
Pressure: 29.64"   Gusts: NA
Location:  42.49°N, 72.19°W
Report Text: KORE 251852Z AUTO 26011KT 10SM CLR 17/06 A2964 RMK AO2 SLP039 T01670061
Loading
Personal Weather Stations






























Interactive Weather Map
Tropical Storm Tracking
New forecast layout! Learn more

10-Day Weather Forecast

Advertisements
Track Severe Weather on mobile